createdAt,value
2019-04-26T00:02:16.154Z,0.00
2019-04-26T00:05:16.474Z,0.00
2019-04-26T00:08:15.996Z,0.00
2019-04-26T00:11:16.122Z,0.00
2019-04-26T00:14:16.286Z,0.00
2019-04-26T00:17:15.911Z,0.00
2019-04-26T00:20:17.005Z,0.00
2019-04-26T00:23:16.141Z,0.00
2019-04-26T00:26:15.809Z,0.00
2019-04-26T00:29:16.825Z,0.00
2019-04-26T00:32:15.755Z,0.00
2019-04-26T00:35:15.732Z,0.00
2019-04-26T00:38:16.083Z,0.00
2019-04-26T00:41:16.374Z,0.00
2019-04-26T00:44:16.567Z,0.00
2019-04-26T00:47:15.588Z,0.00
2019-04-26T00:50:15.552Z,0.00
2019-04-26T00:53:16.078Z,0.00
2019-04-26T00:56:15.936Z,0.00
2019-04-26T00:59:16.386Z,0.00
2019-04-26T01:02:16.595Z,0.00
2019-04-26T01:05:16.075Z,0.00
2019-04-26T01:08:15.809Z,0.00
2019-04-26T01:11:16.287Z,0.00
2019-04-26T01:14:24.164Z,0.00
2019-04-26T01:17:16.156Z,0.00
2019-04-26T01:20:16.115Z,0.00
2019-04-26T01:23:15.195Z,0.00
2019-04-26T01:26:15.159Z,0.00
2019-04-26T01:29:15.153Z,0.00
2019-04-26T01:32:15.091Z,0.00
2019-04-26T01:35:15.071Z,0.00
2019-04-26T01:38:15.036Z,0.00
2019-04-26T01:41:15.014Z,0.00
2019-04-26T01:44:14.956Z,0.00
2019-04-26T01:47:14.942Z,0.00
2019-04-26T01:50:14.898Z,0.00
2019-04-26T01:53:14.887Z,0.00
2019-04-26T01:56:14.870Z,0.00
2019-04-26T01:59:14.796Z,0.00
2019-04-26T02:02:14.778Z,0.00
2019-04-26T02:05:14.735Z,0.00
2019-04-26T02:08:14.716Z,0.00
2019-04-26T02:11:14.680Z,0.00
2019-04-26T02:14:14.653Z,0.00
2019-04-26T02:17:14.618Z,0.00
2019-04-26T02:20:14.578Z,0.00
2019-04-26T02:23:14.537Z,0.00
2019-04-26T02:26:14.524Z,0.00
2019-04-26T02:29:14.476Z,0.00
2019-04-26T02:32:14.510Z,0.00
2019-04-26T02:35:14.419Z,0.00
2019-04-26T02:38:14.380Z,0.00
2019-04-26T02:41:14.363Z,0.00
2019-04-26T02:44:14.315Z,0.00
2019-04-26T02:47:14.292Z,0.00
2019-04-26T02:50:14.252Z,0.00
2019-04-26T02:53:14.234Z,0.00
2019-04-26T02:56:14.184Z,0.00
2019-04-26T02:59:14.291Z,0.00
2019-04-26T03:02:14.126Z,0.00
2019-04-26T03:05:14.090Z,0.00
2019-04-26T03:08:14.070Z,0.00
2019-04-26T03:11:17.326Z,0.00
2019-04-26T03:14:14.005Z,0.00
2019-04-26T03:17:13.957Z,0.00
2019-04-26T03:20:13.943Z,0.00
2019-04-26T03:23:13.903Z,0.00
2019-04-26T03:26:13.910Z,0.00
2019-04-26T03:29:13.851Z,0.00
2019-04-26T03:32:16.543Z,0.00
2019-04-26T03:35:13.789Z,0.00
2019-04-26T03:38:13.727Z,0.00
2019-04-26T03:41:13.718Z,0.00
2019-04-26T03:44:13.660Z,0.00
2019-04-26T03:47:13.648Z,0.00
2019-04-26T03:50:13.623Z,0.00
2019-04-26T03:53:13.569Z,0.00
2019-04-26T03:56:13.542Z,0.00
2019-04-26T03:59:13.661Z,0.00
2019-04-26T04:02:13.503Z,0.00
2019-04-26T04:05:13.436Z,0.00
2019-04-26T04:08:13.421Z,5.62
2019-04-26T04:11:13.392Z,5.62
2019-04-26T04:14:13.427Z,11.25
2019-04-26T04:17:13.310Z,16.88
2019-04-26T04:20:13.288Z,16.88
2019-04-26T04:23:13.249Z,16.88
2019-04-26T04:26:13.214Z,16.88
2019-04-26T04:29:13.188Z,28.12
2019-04-26T04:32:13.154Z,33.75
2019-04-26T04:35:13.128Z,33.75
2019-04-26T04:38:13.090Z,39.38
2019-04-26T04:41:13.058Z,39.38
2019-04-26T04:44:13.042Z,45.00
2019-04-26T04:47:23.701Z,50.62
2019-04-26T04:50:13.961Z,56.25
2019-04-26T04:53:12.926Z,56.25
2019-04-26T04:56:12.885Z,56.25
2019-04-26T04:59:12.871Z,56.25
2019-04-26T05:02:12.818Z,61.88
2019-04-26T05:05:12.796Z,61.88
2019-04-26T05:08:12.771Z,56.25
2019-04-26T05:11:12.722Z,56.25
2019-04-26T05:14:12.723Z,61.88
2019-04-26T05:17:12.666Z,73.12
2019-04-26T05:20:12.649Z,84.38
2019-04-26T05:23:12.598Z,90.00
2019-04-26T05:26:12.613Z,84.38
2019-04-26T05:29:12.531Z,84.38
2019-04-26T05:32:12.514Z,90.00
2019-04-26T05:35:12.483Z,90.00
2019-04-26T05:38:18.277Z,101.25
2019-04-26T05:41:13.413Z,112.50
2019-04-26T05:44:12.373Z,140.62
2019-04-26T05:47:12.349Z,157.50
2019-04-26T05:50:12.323Z,168.75
2019-04-26T05:53:12.289Z,146.25
2019-04-26T05:56:12.246Z,135.00
2019-04-26T05:59:12.218Z,129.38
2019-04-26T06:02:12.187Z,135.00
2019-04-26T06:05:12.142Z,146.25
2019-04-26T06:08:12.118Z,146.25
2019-04-26T06:11:12.089Z,151.88
2019-04-26T06:14:12.064Z,163.12
2019-04-26T06:17:12.009Z,157.50
2019-04-26T06:20:22.255Z,112.50
2019-04-26T06:23:12.954Z,95.62
2019-04-26T06:26:11.918Z,84.38
2019-04-26T06:29:11.898Z,95.62
2019-04-26T06:32:11.868Z,118.12
2019-04-26T06:35:11.827Z,101.25
2019-04-26T06:38:11.785Z,112.50
2019-04-26T06:41:11.765Z,112.50
2019-04-26T06:44:11.725Z,95.62
2019-04-26T06:47:11.709Z,112.50
2019-04-26T06:50:11.672Z,112.50
2019-04-26T06:53:11.625Z,140.62
2019-04-26T06:56:11.602Z,129.38
2019-04-26T06:59:11.575Z,118.12
2019-04-26T07:02:11.542Z,140.62
2019-04-26T07:05:12.226Z,135.00
2019-04-26T07:08:12.625Z,135.00
2019-04-26T07:11:11.783Z,146.25
2019-04-26T07:14:19.035Z,146.25
2019-04-26T07:17:12.235Z,151.88
2019-04-26T07:20:11.597Z,140.62
2019-04-26T07:23:11.313Z,129.38
2019-04-26T07:26:11.275Z,140.62
2019-04-26T07:29:11.328Z,157.50
2019-04-26T07:32:11.585Z,146.25
2019-04-26T07:35:11.204Z,146.25
2019-04-26T07:38:11.201Z,135.00
2019-04-26T07:41:11.480Z,112.50
2019-04-26T07:44:11.830Z,118.12
2019-04-26T07:47:13.864Z,112.50
2019-04-26T07:50:11.500Z,101.25
2019-04-26T07:53:11.343Z,95.62
2019-04-26T07:56:11.366Z,95.62
2019-04-26T07:59:10.938Z,67.50
2019-04-26T08:02:11.221Z,50.62
2019-04-26T08:05:11.471Z,33.75
2019-04-26T08:08:10.953Z,28.12
2019-04-26T08:11:12.825Z,39.38
2019-04-26T08:14:10.805Z,45.00
2019-04-26T08:17:10.719Z,73.12
2019-04-26T08:20:11.429Z,112.50
2019-04-26T08:23:28.186Z,140.62
2019-04-26T08:26:11.641Z,135.00
2019-04-26T08:29:10.654Z,106.88
2019-04-26T08:32:11.409Z,112.50
2019-04-26T08:35:16.819Z,112.50
2019-04-26T08:38:16.005Z,129.38
2019-04-26T08:41:11.667Z,106.88
2019-04-26T08:44:11.237Z,123.75
2019-04-26T08:47:14.257Z,112.50
2019-04-26T08:50:13.688Z,123.75
2019-04-26T08:53:10.343Z,118.12
2019-04-26T08:56:11.630Z,112.50
2019-04-26T08:59:10.270Z,123.75
2019-04-26T09:02:10.246Z,168.75
2019-04-26T09:05:10.198Z,129.38
2019-04-26T09:08:10.191Z,106.88
2019-04-26T09:11:22.547Z,101.25
2019-04-26T09:14:11.122Z,112.50
2019-04-26T09:17:10.087Z,135.00
2019-04-26T09:20:10.039Z,123.75
2019-04-26T09:23:10.039Z,151.88
2019-04-26T09:26:12.503Z,191.25
2019-04-26T09:29:09.950Z,180.00
2019-04-26T09:32:09.914Z,174.38
2019-04-26T09:35:11.342Z,185.62
2019-04-26T09:38:10.849Z,191.25
2019-04-26T09:41:09.828Z,230.62
2019-04-26T09:44:09.775Z,264.38
2019-04-26T09:47:09.759Z,225.00
2019-04-26T09:50:11.242Z,196.88
2019-04-26T09:53:10.699Z,253.12
2019-04-26T09:56:09.660Z,331.88
2019-04-26T09:59:09.623Z,303.75
2019-04-26T10:02:09.599Z,236.25
2019-04-26T10:05:12.173Z,225.00
2019-04-26T10:08:13.091Z,247.50
2019-04-26T10:11:10.729Z,382.50
2019-04-26T10:14:09.469Z,450.00
2019-04-26T10:17:11.469Z,444.38
2019-04-26T10:20:10.398Z,393.75
2019-04-26T10:23:09.371Z,421.88
2019-04-26T10:26:09.325Z,421.88
2019-04-26T10:29:09.304Z,416.25
2019-04-26T10:32:09.276Z,590.62
2019-04-26T10:35:09.239Z,663.75
2019-04-26T10:38:09.234Z,478.12
2019-04-26T10:41:09.177Z,393.75
2019-04-26T10:44:09.142Z,393.75
2019-04-26T10:47:09.100Z,382.50
2019-04-26T10:50:09.077Z,236.25
2019-04-26T10:53:09.037Z,185.62
2019-04-26T10:56:09.011Z,191.25
2019-04-26T10:59:09.823Z,191.25
2019-04-26T11:02:08.965Z,399.38
2019-04-26T11:05:11.633Z,489.38
2019-04-26T11:08:09.886Z,444.38
2019-04-26T11:11:08.842Z,444.38
2019-04-26T11:14:08.821Z,360.00
2019-04-26T11:17:11.543Z,365.62
2019-04-26T11:20:10.511Z,292.50
2019-04-26T11:23:11.648Z,275.62
2019-04-26T11:26:08.690Z,309.38
2019-04-26T11:29:08.664Z,326.25
2019-04-26T11:32:08.637Z,292.50
2019-04-26T11:35:08.578Z,264.38
2019-04-26T11:38:08.584Z,230.62
2019-04-26T11:41:08.638Z,236.25
2019-04-26T11:44:08.503Z,264.38
2019-04-26T11:47:08.509Z,303.75
2019-04-26T11:50:08.487Z,264.38
2019-04-26T11:53:10.262Z,298.12
2019-04-26T11:56:08.387Z,388.12
2019-04-26T11:59:08.333Z,337.50
2019-04-26T12:02:08.304Z,303.75
2019-04-26T12:05:08.277Z,354.38
2019-04-26T12:08:08.238Z,399.38
2019-04-26T12:11:17.871Z,438.75
2019-04-26T12:14:19.656Z,478.12
2019-04-26T12:17:09.132Z,416.25
2019-04-26T12:20:08.120Z,371.25
2019-04-26T12:23:08.063Z,331.88
2019-04-26T12:26:08.044Z,303.75
2019-04-26T12:29:10.504Z,292.50
2019-04-26T12:32:08.979Z,286.88
2019-04-26T12:35:07.945Z,303.75
2019-04-26T12:38:07.914Z,213.75
2019-04-26T12:41:07.930Z,219.38
2019-04-26T12:44:07.845Z,241.88
2019-04-26T12:47:07.813Z,213.75
2019-04-26T12:50:07.791Z,236.25
2019-04-26T12:53:07.741Z,292.50
2019-04-26T12:56:07.717Z,281.25
2019-04-26T12:59:07.671Z,253.12
2019-04-26T13:02:07.661Z,258.75
2019-04-26T13:05:07.622Z,219.38
2019-04-26T13:08:07.590Z,174.38
2019-04-26T13:11:14.518Z,118.12
2019-04-26T13:15:52.390Z,118.12
2019-04-26T13:18:52.367Z,112.50
2019-04-26T13:21:52.319Z,112.50
2019-04-26T13:24:52.319Z,129.38
2019-04-26T13:27:52.247Z,185.62
2019-04-26T13:30:52.225Z,236.25
2019-04-26T13:33:52.181Z,219.38
2019-04-26T13:36:52.168Z,196.88
2019-04-26T13:39:55.296Z,180.00
2019-04-26T13:42:52.510Z,174.38
2019-04-26T13:45:52.073Z,151.88
2019-04-26T13:48:52.036Z,118.12
2019-04-26T13:51:51.990Z,112.50
2019-04-26T13:54:55.455Z,106.88
2019-04-26T13:57:51.927Z,101.25
2019-04-26T14:00:51.883Z,112.50
2019-04-26T14:03:51.867Z,112.50
2019-04-26T14:06:51.905Z,112.50
2019-04-26T14:09:51.793Z,112.50
2019-04-26T14:12:51.770Z,112.50
2019-04-26T14:15:52.102Z,118.12
2019-04-26T14:18:51.702Z,118.12
2019-04-26T14:21:51.661Z,129.38
2019-04-26T14:24:53.004Z,157.50
2019-04-26T14:27:51.717Z,180.00
2019-04-26T14:30:51.727Z,191.25
2019-04-26T14:33:51.772Z,202.50
2019-04-26T14:36:51.820Z,196.88
2019-04-26T14:39:55.350Z,174.38
2019-04-26T14:43:06.053Z,157.50
2019-04-26T14:45:56.040Z,129.38
2019-04-26T14:49:01.298Z,112.50
2019-04-26T14:51:56.091Z,106.88
2019-04-26T14:54:52.158Z,112.50
2019-04-26T14:57:54.011Z,123.75
2019-04-26T15:00:55.908Z,151.88
2019-04-26T15:03:57.151Z,180.00
2019-04-26T15:06:57.899Z,185.62
2019-04-26T15:09:53.407Z,180.00
2019-04-26T15:12:58.603Z,174.38
2019-04-26T15:15:53.532Z,185.62
2019-04-26T15:18:52.641Z,191.25
2019-04-26T15:21:52.574Z,185.62
2019-04-26T15:24:52.603Z,185.62
2019-04-26T15:27:52.615Z,185.62
2019-04-26T15:30:52.850Z,185.62
2019-04-26T15:33:52.962Z,191.25
2019-04-26T15:36:54.145Z,202.50
2019-04-26T15:39:55.140Z,196.88
2019-04-26T15:43:01.263Z,180.00
2019-04-26T15:45:53.636Z,151.88
2019-04-26T15:48:54.538Z,140.62
2019-04-26T15:51:52.674Z,140.62
2019-04-26T15:54:58.422Z,151.88
2019-04-26T15:57:53.568Z,157.50
2019-04-26T16:00:52.883Z,196.88
2019-04-26T16:03:53.082Z,236.25
2019-04-26T16:06:52.563Z,253.12
2019-04-26T16:09:55.907Z,275.62
2019-04-26T16:12:52.522Z,309.38
2019-04-26T16:15:52.491Z,292.50
2019-04-26T16:18:55.963Z,275.62
2019-04-26T16:21:55.316Z,258.75
2019-04-26T16:24:53.132Z,247.50
2019-04-26T16:27:52.225Z,241.88
2019-04-26T16:30:53.158Z,236.25
2019-04-26T16:33:52.156Z,225.00
2019-04-26T16:36:52.573Z,219.38
2019-04-26T16:39:51.908Z,202.50
2019-04-26T16:42:57.087Z,174.38
2019-04-26T16:45:54.284Z,163.12
2019-04-26T16:48:56.668Z,140.62
2019-04-26T16:52:01.620Z,118.12
2019-04-26T16:54:53.004Z,95.62
2019-04-26T16:57:55.576Z,90.00
2019-04-26T17:00:57.659Z,84.38
2019-04-26T17:03:53.426Z,84.38
2019-04-26T17:06:52.549Z,84.38
2019-04-26T17:09:58.149Z,84.38
2019-04-26T17:12:54.339Z,84.38
2019-04-26T17:15:57.570Z,78.75
2019-04-26T17:18:55.588Z,78.75
2019-04-26T17:21:52.493Z,78.75
2019-04-26T17:24:51.122Z,73.12
2019-04-26T17:27:52.806Z,67.50
2019-04-26T17:30:52.903Z,56.25
2019-04-26T17:33:51.054Z,50.62
2019-04-26T17:36:52.284Z,45.00
2019-04-26T17:39:52.173Z,39.38
2019-04-26T17:42:51.224Z,39.38
2019-04-26T17:45:51.666Z,45.00
2019-04-26T17:48:51.397Z,50.62
2019-04-26T17:51:51.734Z,50.62
2019-04-26T17:54:52.230Z,50.62
2019-04-26T17:57:52.456Z,39.38
2019-04-26T18:00:51.578Z,39.38
2019-04-26T18:03:55.448Z,33.75
2019-04-26T18:06:57.869Z,28.12
2019-04-26T18:09:52.590Z,22.50
2019-04-26T18:12:51.114Z,22.50
2019-04-26T18:15:52.742Z,22.50
2019-04-26T18:18:54.401Z,16.88
2019-04-26T18:21:56.071Z,16.88
2019-04-26T18:24:52.221Z,11.25
2019-04-26T18:27:51.250Z,11.25
2019-04-26T18:30:53.024Z,11.25
2019-04-26T18:33:54.840Z,5.62
2019-04-26T18:36:52.385Z,5.62
2019-04-26T18:39:51.403Z,5.62
2019-04-26T18:42:53.074Z,5.62
2019-04-26T18:45:53.155Z,0.00
2019-04-26T18:48:51.527Z,0.00
2019-04-26T18:51:51.546Z,0.00
2019-04-26T18:54:52.527Z,0.00
2019-04-26T18:57:56.352Z,0.00
2019-04-26T19:00:53.158Z,0.00
2019-04-26T19:03:51.803Z,0.00
2019-04-26T19:06:51.888Z,0.00
2019-04-26T19:10:02.804Z,0.00
2019-04-26T19:12:56.388Z,0.00
2019-04-26T19:15:53.110Z,0.00
2019-04-26T19:18:52.204Z,0.00
2019-04-26T19:21:54.489Z,0.00
2019-04-26T19:24:54.268Z,0.00
2019-04-26T19:27:54.105Z,0.00
2019-04-26T19:30:53.220Z,0.00
2019-04-26T19:33:55.842Z,0.00
2019-04-26T19:36:56.289Z,0.00
2019-04-26T19:39:53.955Z,0.00
2019-04-26T19:42:57.391Z,0.00
2019-04-26T19:45:53.255Z,0.00
2019-04-26T19:48:56.469Z,0.00
2019-04-26T19:51:56.671Z,0.00
2019-04-26T19:54:54.582Z,0.00
2019-04-26T19:57:53.751Z,0.00
2019-04-26T20:00:53.828Z,0.00
2019-04-26T20:03:55.364Z,0.00
2019-04-26T20:06:55.335Z,0.00
2019-04-26T20:09:56.324Z,0.00
2019-04-26T20:12:55.394Z,0.00
2019-04-26T20:16:00.443Z,0.00
2019-04-26T20:18:55.617Z,0.00
2019-04-26T20:21:54.763Z,0.00
2019-04-26T20:26:22.686Z,0.00
2019-04-26T20:29:23.202Z,0.00
2019-04-26T20:32:23.881Z,0.00
2019-04-26T20:35:26.906Z,0.00
2019-04-26T20:38:23.209Z,0.00
2019-04-26T20:41:22.273Z,0.00
2019-04-26T20:44:28.393Z,0.00
2019-04-26T20:47:22.974Z,0.00
2019-04-26T20:50:21.892Z,0.00
2019-04-26T20:53:21.846Z,0.00
2019-04-26T20:56:22.485Z,0.00
2019-04-26T20:59:23.564Z,0.00
2019-04-26T21:02:24.783Z,0.00
2019-04-26T21:05:21.667Z,0.00
2019-04-26T21:08:25.693Z,0.00
2019-04-26T21:11:22.570Z,0.00
2019-04-26T21:14:21.607Z,0.00
2019-04-26T21:17:24.247Z,0.00
2019-04-26T21:20:22.471Z,0.00
2019-04-26T21:23:22.276Z,0.00
2019-04-26T21:26:21.716Z,0.00
2019-04-26T21:29:24.145Z,0.00
2019-04-26T21:32:23.709Z,0.00
2019-04-26T21:35:25.000Z,0.00
2019-04-26T21:38:25.571Z,0.00
2019-04-26T21:41:21.131Z,0.00
2019-04-26T21:44:21.087Z,0.00
2019-04-26T21:47:21.069Z,0.00
2019-04-26T21:50:21.001Z,0.00
2019-04-26T21:53:21.007Z,0.00
2019-04-26T21:56:20.975Z,0.00
2019-04-26T21:59:20.973Z,0.00
2019-04-26T22:02:20.944Z,0.00
2019-04-26T22:05:20.938Z,0.00
2019-04-26T22:08:24.508Z,0.00
2019-04-26T22:11:20.978Z,0.00
2019-04-26T22:14:21.611Z,0.00
2019-04-26T22:17:22.612Z,0.00
2019-04-26T22:20:20.854Z,0.00
2019-04-26T22:23:21.401Z,0.00
2019-04-26T22:26:20.819Z,0.00
2019-04-26T22:29:20.794Z,0.00
2019-04-26T22:32:20.798Z,0.00
2019-04-26T22:35:21.633Z,0.00
2019-04-26T22:38:23.754Z,0.00
2019-04-26T22:41:24.392Z,0.00
2019-04-26T22:44:24.879Z,0.00
2019-04-26T22:47:23.913Z,0.00
2019-04-26T22:50:22.164Z,0.00
2019-04-26T22:53:21.501Z,0.00
2019-04-26T22:56:20.651Z,0.00
2019-04-26T22:59:20.631Z,0.00
2019-04-26T23:02:25.849Z,0.00
2019-04-26T23:05:23.082Z,0.00
2019-04-26T23:08:20.650Z,0.00
2019-04-26T23:11:20.640Z,0.00
2019-04-26T23:14:20.664Z,0.00
2019-04-26T23:17:20.648Z,0.00
2019-04-26T23:20:20.671Z,0.00
2019-04-26T23:23:20.664Z,0.00
2019-04-26T23:26:20.702Z,0.00
2019-04-26T23:29:20.682Z,0.00
2019-04-26T23:32:20.716Z,0.00
2019-04-26T23:35:20.703Z,0.00
2019-04-26T23:38:20.715Z,0.00
2019-04-26T23:41:20.744Z,0.00
2019-04-26T23:44:20.726Z,0.00
2019-04-26T23:47:22.986Z,0.00
2019-04-26T23:50:20.777Z,0.00
2019-04-26T23:53:21.406Z,0.00
2019-04-26T23:56:23.539Z,0.00
2019-04-26T23:59:21.857Z,0.00
